Terminal Aerodrome Forecast
Issued by NWS

Home | Current Version | Previous Version | Text Only | Print | Product List | Glossary On
Versions: 1 2 3 4 5 6 7 8 9 10 11 12 13 14 15 16 17 18 19 20 21 22 23 24 25
000
FTUS46 KSTO 261100 CCA
TAFSCK
TAF COR
KSCK 261136Z 2612/2712 VRB03KT 1/4SM FG VV002
     FM261800 00000KT 2SM BR OVC004
     FM262200 VRB03KT 4SM HZ OVC150
     FM271000 VRB03KT 2SM BR OVC150=

USA.gov is the U.S. government's official web portal to all federal, state and local government web resources and services.